Time;durP1;ratioP1;P1;durP2;ratioP2;P2;SDS_P1;SDS_P2;PMS_P1;PMS_P2;Temp;Humidity;BMP_temperature;BMP_pressure;BME280_temperature;BME280_humidity;BME280_pressure;Samples;Min_cycle;Max_cycle;Signal;HPM_P1;HPM_P2
2021/08/17 00:00:34;;;;;;;;;;;;;;;;;;5019221;28;19925;-90
2021/08/17 00:03:04;;;;;;;;;;;;;;;;;;5016202;28;19925;-90
2021/08/17 00:05:33;;;;;;;;;;;;;;;;;;5019164;28;19929;-90
2021/08/17 00:08:03;;;;;;;;;;;;;;;;;;5023744;28;19931;-90
2021/08/17 00:10:33;;;;;;;;;;;;;;;;;;5019144;28;19994;-93
2021/08/17 00:13:02;;;;;;;;;;;;;;;;;;5030713;28;19925;-87
2021/08/17 00:15:30;;;;;;;;;;;;;;;;;;5015876;28;19929;-89
2021/08/17 00:17:59;;;;;;;;;;;;;;;;;;5020210;28;19948;-85
2021/08/17 00:20:28;;;;;;;;;;;;;;;;;;5024461;28;19925;-84
2021/08/17 00:22:56;;;;;;;;;;;;;;;;;;5008355;28;19929;-90
2021/08/17 00:25:25;;;;;;;;;;;;;;;;;;5014912;28;20137;-87
2021/08/17 00:27:59;;;;;;;;;;;;;;;;;;5011210;28;19937;-87
2021/08/17 00:30:28;;;;;;;;;;;;;;;;;;5031502;28;20550;-89
2021/08/17 00:32:56;;;;;;;;;;;;;;;;;;5023141;28;19925;-85
2021/08/17 00:35:25;;;;;;;;;;;;;;;;;;5029731;28;19929;-87
2021/08/17 00:37:53;;;;;;;;;;;;;;;;;;5007235;28;19930;-86
2021/08/17 00:40:23;;;;;;;;;;;;;;;;;;5008544;28;19930;-84
2021/08/17 00:42:52;;;;;;;;;;;;;;;;;;5012177;28;19948;-89
2021/08/17 00:45:22;;;;;;;;;;;;;;;;;;5007231;28;19925;-90
2021/08/17 00:47:52;;;;;;;;;;;;;;;;;;5015064;28;19955;-84
2021/08/17 00:50:21;;;;;;;;;;;;;;;;;;5005198;28;20167;-87
2021/08/17 00:52:50;;;;;;;;;;;;;;;;;;5010670;28;19925;-90
2021/08/17 00:55:18;;;;;;;;;;;;;;;;;;5027519;28;19925;-93
2021/08/17 00:57:47;;;;;;;;;;;;;;;;;;5009100;28;19936;-88
2021/08/17 01:00:17;;;;;;;;;;;;;;;;;;5020665;28;19926;-91
2021/08/17 01:02:48;;;;;;;;;;;;;;;;;;5104556;27;19938;-91
2021/08/17 01:05:17;;;;;;;;;;;;;;;;;;5036367;28;19929;-86
2021/08/17 01:07:47;;;;;;;;;;;;;;;;;;5010494;28;19933;-89
2021/08/17 01:10:17;;;;;;;;;;;;;;;;;;5025635;28;19930;-93
2021/08/17 01:12:47;;;;;;;;;;;;;;;;;;5011686;28;20079;-94
2021/08/17 01:15:16;;;;;;;;;;;;;;;;;;5032154;28;20317;-88
2021/08/17 01:17:50;;;;;;;;;;;;;;;;;;5006455;27;19933;-88
2021/08/17 01:20:20;;;;;;;;;;;;;;;;;;5008208;28;19932;-88
2021/08/17 01:22:49;;;;;;;;;;;;;;;;;;5008418;28;19925;-88
2021/08/17 01:25:19;;;;;;;;;;;;;;;;;;5009126;28;19932;-89
2021/08/17 01:27:52;;;;;;;;;;;;;;;;;;5006627;28;19929;-89
2021/08/17 01:30:22;;;;;;;;;;;;;;;;;;5026708;28;19940;-86
2021/08/17 01:32:50;;;;;;;;;;;;;;;;;;5014953;28;19926;-93
2021/08/17 01:35:19;;;;;;;;;;;;;;;;;;5011503;28;20441;-84
2021/08/17 01:37:48;;;;;;;;;;;;;;;;;;5011353;28;19932;-85
2021/08/17 01:40:17;;;;;;;;;;;;;;;;;;5028061;28;19925;-91
2021/08/17 01:42:46;;;;;;;;;;;;;;;;;;5011760;28;19926;-91
2021/08/17 01:45:16;;;;;;;;;;;;;;;;;;5024438;28;19925;-88
2021/08/17 01:47:48;;;;;;;;;;;;;;;;;;5012938;28;19933;-89
2021/08/17 01:50:18;;;;;;;;;;;;;;;;;;5017733;28;19925;-84
2021/08/17 01:52:49;;;;;;;;;;;;;;;;;;5004245;28;19926;-93
2021/08/17 01:55:23;;;;;;;;;;;;;;;;;;5016780;28;20390;-90
2021/08/17 01:57:56;;;;;;;;;;;;;;;;;;5009020;28;19925;-89
2021/08/17 02:00:28;;;;;;;;;;;;;;;;;;5015728;28;20489;-88
2021/08/17 02:02:58;;;;;;;;;;;;;;;;;;5012503;28;20044;-86
2021/08/17 02:05:29;;;;;;;;;;;;;;;;;;5016460;28;20026;-89
2021/08/17 02:07:58;;;;;;;;;;;;;;;;;;5034237;28;19929;-91
2021/08/17 02:10:27;;;;;;;;;;;;;;;;;;5017987;28;20283;-89
2021/08/17 02:12:56;;;;;;;;;;;;;;;;;;5016830;28;19929;-90
2021/08/17 02:15:27;;;;;;;;;;;;;;;;;;5015539;27;19929;-91
2021/08/17 02:18:08;;;;;;;;;;;;;;;;;;5027553;28;19940;-89
2021/08/17 02:20:41;;;;;;;;;;;;;;;;;;5096514;27;19938;-90
2021/08/17 02:23:43;;;;;;;;;;;;;;;;;;5031797;28;20206;-92
2021/08/17 02:30:11;;;;;;;;;;;;;;;;;;5016175;28;19932;-89
2021/08/17 02:32:45;;;;;;;;;;;;;;;;;;5013196;28;19933;-90
2021/08/17 02:35:14;;;;;;;;;;;;;;;;;;5033243;28;19929;-91
2021/08/17 02:37:43;;;;;;;;;;;;;;;;;;5025888;28;19929;-88
2021/08/17 02:40:12;;;;;;;;;;;;;;;;;;5013322;28;20472;-88
2021/08/17 02:42:40;;;;;;;;;;;;;;;;;;5008128;28;19929;-90
2021/08/17 02:45:10;;;;;;;;;;;;;;;;;;5011437;28;19932;-89
2021/08/17 02:47:39;;;;;;;;;;;;;;;;;;5010335;28;19929;-90
2021/08/17 02:50:11;;;;;;;;;;;;;;;;;;5007826;28;19925;-89
2021/08/17 02:52:42;;;;;;;;;;;;;;;;;;5003818;28;19925;-92
2021/08/17 02:55:13;;;;;;;;;;;;;;;;;;5012067;28;19925;-90
2021/08/17 02:57:51;;;;;;;;;;;;;;;;;;5007034;28;20306;-89
2021/08/17 03:00:24;;;;;;;;;;;;;;;;;;5006904;28;19925;-93
2021/08/17 03:02:52;;;;;;;;;;;;;;;;;;5010420;27;19925;-89
2021/08/17 03:05:22;;;;;;;;;;;;;;;;;;5022835;28;19933;-89
2021/08/17 03:07:53;;;;;;;;;;;;;;;;;;5028722;28;19939;-90
2021/08/17 03:10:23;;;;;;;;;;;;;;;;;;5014447;28;19925;-91
2021/08/17 03:12:52;;;;;;;;;;;;;;;;;;5010430;28;19925;-90
2021/08/17 03:15:20;;;;;;;;;;;;;;;;;;5013972;28;19925;-90
2021/08/17 03:17:53;;;;;;;;;;;;;;;;;;5001347;28;19925;-90
2021/08/17 03:20:35;;;;;;;;;;;;;;;;;;5009989;28;19933;-91
2021/08/17 03:23:05;;;;;;;;;;;;;;;;;;5021419;28;19999;-91
2021/08/17 03:30:14;;;;;;;;;;;;;;;;;;5031990;28;19917;-91
2021/08/17 03:32:43;;;;;;;;;;;;;;;;;;5011127;28;19926;-93
2021/08/17 03:35:12;;;;;;;;;;;;;;;;;;5029540;28;19925;-90
2021/08/17 03:37:45;;;;;;;;;;;;;;;;;;5011714;28;20430;-90
2021/08/17 03:40:14;;;;;;;;;;;;;;;;;;5009473;28;19933;-90
2021/08/17 03:42:43;;;;;;;;;;;;;;;;;;5016965;28;20379;-90
2021/08/17 03:45:13;;;;;;;;;;;;;;;;;;5015334;28;19925;-93
2021/08/17 03:47:42;;;;;;;;;;;;;;;;;;5035501;27;19933;-93
2021/08/17 03:50:13;;;;;;;;;;;;;;;;;;5024663;28;19936;-93
2021/08/17 03:52:45;;;;;;;;;;;;;;;;;;5006653;28;19937;-92
2021/08/17 03:55:21;;;;;;;;;;;;;;;;;;5005613;28;19933;-91
2021/08/17 03:57:53;;;;;;;;;;;;;;;;;;5010658;28;20011;-91
2021/08/17 04:00:27;;;;;;;;;;;;;;;;;;5028797;28;19929;-90
2021/08/17 04:06:46;;;;;;;;;;;;;;;;;;5023659;28;19978;-92
2021/08/17 04:09:20;;;;;;;;;;;;;;;;;;5032048;28;19924;-92
2021/08/17 04:12:07;;;;;;;;;;;;;;;;;;5022568;28;19929;-91
2021/08/17 04:15:20;;;;;;;;;;;;;;;;;;5025064;28;19926;-89
2021/08/17 04:17:51;;;;;;;;;;;;;;;;;;5010633;28;19925;-92
2021/08/17 04:20:21;;;;;;;;;;;;;;;;;;5042025;28;20067;-91
2021/08/17 04:22:50;;;;;;;;;;;;;;;;;;5025422;28;19925;-92
2021/08/17 04:25:21;;;;;;;;;;;;;;;;;;5009932;28;19940;-91
2021/08/17 04:27:50;;;;;;;;;;;;;;;;;;5017583;28;19932;-90
2021/08/17 04:30:20;;;;;;;;;;;;;;;;;;5003226;28;19926;-91
2021/08/17 04:32:49;;;;;;;;;;;;;;;;;;5009554;28;19936;-89
2021/08/17 04:35:22;;;;;;;;;;;;;;;;;;5013115;28;19925;-90
2021/08/17 04:37:58;;;;;;;;;;;;;;;;;;5043837;28;20159;-89
2021/08/17 04:44:53;;;;;;;;;;;;;;;;;;5015534;28;20379;-90
2021/08/17 04:47:24;;;;;;;;;;;;;;;;;;5014789;28;19933;-90
2021/08/17 04:49:53;;;;;;;;;;;;;;;;;;5011395;28;19925;-91
2021/08/17 04:52:27;;;;;;;;;;;;;;;;;;5009138;28;20402;-90
2021/08/17 04:55:37;;;;;;;;;;;;;;;;;;5014801;28;19926;-88
2021/08/17 04:58:06;;;;;;;;;;;;;;;;;;5009086;28;19925;-91
2021/08/17 05:00:42;;;;;;;;;;;;;;;;;;5015022;28;19948;-93
2021/08/17 05:03:11;;;;;;;;;;;;;;;;;;5028537;28;19930;-93
2021/08/17 05:05:40;;;;;;;;;;;;;;;;;;5013676;28;20924;-91
2021/08/17 05:08:09;;;;;;;;;;;;;;;;;;5012572;28;19932;-91
2021/08/17 05:10:49;;;;;;;;;;;;;;;;;;5009503;28;20306;-91
2021/08/17 05:16:27;;;;;;;;;;;;;;;;;;5021683;28;19925;-90
2021/08/17 05:22:46;;;;;;;;;;;;;;;;;;5038266;28;19929;-91
2021/08/17 05:25:15;;;;;;;;;;;;;;;;;;5016321;28;19940;-91
2021/08/17 05:31:48;;;;;;;;;;;;;;;;;;5028926;28;19933;-88
2021/08/17 05:34:17;;;;;;;;;;;;;;;;;;5042272;27;19932;-91
2021/08/17 05:36:45;;;;;;;;;;;;;;;;;;5013944;28;19925;-90
2021/08/17 05:39:17;;;;;;;;;;;;;;;;;;5024768;27;19925;-91
2021/08/17 05:41:46;;;;;;;;;;;;;;;;;;5010301;28;19948;-91
2021/08/17 05:44:21;;;;;;;;;;;;;;;;;;5010592;28;19925;-91
2021/08/17 05:46:51;;;;;;;;;;;;;;;;;;5015440;28;19929;-89
2021/08/17 05:49:23;;;;;;;;;;;;;;;;;;5008834;28;19925;-91
2021/08/17 05:52:00;;;;;;;;;;;;;;;;;;5012899;28;19936;-88
2021/08/17 05:54:50;;;;;;;;;;;;;;;;;;5095363;28;19932;-91
2021/08/17 05:57:22;;;;;;;;;;;;;;;;;;5014494;28;19934;-91
2021/08/17 06:03:07;;;;;;;;;;;;;;;;;;5016171;28;19939;-91
2021/08/17 06:09:39;;;;;;;;;;;;;;;;;;5012976;28;19937;-89
2021/08/17 06:12:08;;;;;;;;;;;;;;;;;;5030824;28;19926;-90
2021/08/17 06:14:37;;;;;;;;;;;;;;;;;;5010476;28;19926;-91
2021/08/17 06:17:06;;;;;;;;;;;;;;;;;;5026389;28;19929;-93
2021/08/17 06:19:36;;;;;;;;;;;;;;;;;;5017334;28;20664;-90
2021/08/17 06:22:05;;;;;;;;;;;;;;;;;;5026332;28;20304;-88
2021/08/17 06:24:33;;;;;;;;;;;;;;;;;;5010743;28;19926;-91
2021/08/17 06:27:02;;;;;;;;;;;;;;;;;;5019741;28;19932;-90
2021/08/17 06:29:49;;;;;;;;;;;;;;;;;;5012559;28;19932;-89
2021/08/17 06:32:18;;;;;;;;;;;;;;;;;;5033956;28;19926;-89
2021/08/17 06:34:48;;;;;;;;;;;;;;;;;;5034556;28;20186;-91
2021/08/17 06:37:16;;;;;;;;;;;;;;;;;;5040569;27;20406;-89
2021/08/17 06:39:45;;;;;;;;;;;;;;;;;;5023722;28;20441;-89
2021/08/17 06:42:13;;;;;;;;;;;;;;;;;;5023976;28;19925;-91
2021/08/17 06:44:42;;;;;;;;;;;;;;;;;;5020610;28;19936;-92
2021/08/17 06:47:10;;;;;;;;;;;;;;;;;;5018791;28;19932;-88
2021/08/17 06:49:39;;;;;;;;;;;;;;;;;;5068891;28;19926;-91
2021/08/17 06:52:09;;;;;;;;;;;;;;;;;;5015572;28;19929;-91
2021/08/17 06:54:37;;;;;;;;;;;;;;;;;;5040846;28;20311;-91
2021/08/17 06:57:08;;;;;;;;;;;;;;;;;;5040175;28;19932;-91
2021/08/17 07:00:00;;;;;;;;;;;;;;;;;;5044423;28;19925;-90
2021/08/17 07:20:35;;;;;;;;;;;;;;;;;;4949235;28;19933;-88
2021/08/17 07:23:35;;;;;;;;;;;;;;;;;;5013885;28;19930;-90
2021/08/17 07:26:13;;;;;;;;;;;;;;;;;;4941470;28;19934;-89
2021/08/17 07:28:43;;;;;;;;;;;;;;;;;;4944047;28;20534;-87
2021/08/17 07:31:33;;;;;;;;;;;;;;;;;;4925692;28;19945;-91
2021/08/17 07:45:26;;;;;;;;;;;;;;;;;;5659052;23;19925;-93
2021/08/17 07:48:11;;;;;;;;;;;;;;;;;;5025074;28;19929;-91
2021/08/17 07:50:39;;;;;;;;;;;;;;;;;;5038177;28;19925;-92
2021/08/17 07:53:08;;;;;;;;;;;;;;;;;;5018895;28;19925;-92
2021/08/17 07:55:37;;;;;;;;;;;;;;;;;;5020542;28;19932;-91
2021/08/17 07:58:05;;;;;;;;;;;;;;;;;;5022858;28;19925;-92
2021/08/17 08:00:36;;;;;;;;;;;;;;;;;;5024850;28;19925;-91
2021/08/17 08:03:04;;;;;;;;;;;;;;;;;;5018553;28;20293;-92
2021/08/17 08:05:33;;;;;;;;;;;;;;;;;;5018993;28;19925;-90
2021/08/17 08:08:01;;;;;;;;;;;;;;;;;;5019059;28;19929;-91
2021/08/17 08:10:30;;;;;;;;;;;;;;;;;;5015300;28;19948;-93
2021/08/17 08:12:59;;;;;;;;;;;;;;;;;;5000180;28;19926;-91
2021/08/17 08:15:27;;;;;;;;;;;;;;;;;;4998306;28;19926;-92
2021/08/17 08:17:56;;;;;;;;;;;;;;;;;;5005034;28;19925;-91
2021/08/17 08:20:25;;;;;;;;;;;;;;;;;;5036861;28;19933;-94
2021/08/17 08:22:53;;;;;;;;;;;;;;;;;;5017614;28;19936;-91
2021/08/17 08:25:21;;;;;;;;;;;;;;;;;;5016616;28;19925;-92
2021/08/17 08:27:50;;;;;;;;;;;;;;;;;;5019353;28;19925;-92
2021/08/17 08:30:19;;;;;;;;;;;;;;;;;;5019846;28;19948;-90
2021/08/17 08:32:48;;;;;;;;;;;;;;;;;;5020155;28;19932;-92
2021/08/17 08:35:19;;;;;;;;;;;;;;;;;;5017342;28;19925;-91
2021/08/17 08:37:47;;;;;;;;;;;;;;;;;;5003515;28;19930;-93
2021/08/17 08:40:15;;;;;;;;;;;;;;;;;;4998319;28;19926;-90
2021/08/17 08:42:45;;;;;;;;;;;;;;;;;;5010570;28;19925;-91
2021/08/17 08:45:13;;;;;;;;;;;;;;;;;;5013871;28;19932;-90
2021/08/17 08:47:42;;;;;;;;;;;;;;;;;;5013049;28;19933;-90
2021/08/17 08:50:10;;;;;;;;;;;;;;;;;;5003722;28;19933;-90
2021/08/17 08:52:40;;;;;;;;;;;;;;;;;;5006513;28;19925;-91
2021/08/17 08:55:08;;;;;;;;;;;;;;;;;;5016636;28;19924;-90
2021/08/17 08:57:50;;;;;;;;;;;;;;;;;;5072308;27;19948;-84
2021/08/17 09:00:19;;;;;;;;;;;;;;;;;;5039405;27;19929;-85
2021/08/17 09:02:52;;;;;;;;;;;;;;;;;;5062744;27;19925;-83
2021/08/17 09:05:22;;;;;;;;;;;;;;;;;;5062909;27;19925;-85
2021/08/17 09:07:53;;;;;;;;;;;;;;;;;;5042244;27;19948;-84
2021/08/17 09:10:24;;;;;;;;;;;;;;;;;;5036676;27;20220;-83
2021/08/17 09:12:54;;;;;;;;;;;;;;;;;;5141936;27;19925;-84
2021/08/17 09:15:23;;;;;;;;;;;;;;;;;;5043138;27;19925;-85
2021/08/17 09:17:59;;;;;;;;;;;;;;;;;;5138630;27;19925;-84
2021/08/17 09:20:28;;;;;;;;;;;;;;;;;;5053813;27;20422;-83
2021/08/17 09:22:57;;;;;;;;;;;;;;;;;;5042163;27;19925;-83
2021/08/17 09:25:32;;;;;;;;;;;;;;;;;;5136766;27;19929;-83
2021/08/17 09:28:23;;;;;;;;;;;;;;;;;;5055945;27;20419;-83
2021/08/17 09:30:52;;;;;;;;;;;;;;;;;;5051455;27;20891;-83
2021/08/17 09:33:20;;;;;;;;;;;;;;;;;;5044825;27;19936;-83
2021/08/17 09:35:55;;;;;;;;;;;;;;;;;;5052616;27;19932;-84
2021/08/17 09:38:24;;;;;;;;;;;;;;;;;;5157116;27;19936;-84
2021/08/17 09:40:56;;;;;;;;;;;;;;;;;;5047657;27;19925;-83
2021/08/17 09:43:27;;;;;;;;;;;;;;;;;;5075354;27;19924;-83
2021/08/17 09:45:56;;;;;;;;;;;;;;;;;;5069667;27;19925;-82
2021/08/17 09:48:29;;;;;;;;;;;;;;;;;;5077631;27;19936;-82
2021/08/17 09:50:57;;;;;;;;;;;;;;;;;;5054787;27;19924;-83
2021/08/17 09:53:26;;;;;;;;;;;;;;;;;;5054741;27;19925;-83
2021/08/17 09:55:56;;;;;;;;;;;;;;;;;;5101442;27;19982;-83
2021/08/17 09:58:25;;;;;;;;;;;;;;;;;;5059698;27;19947;-82
2021/08/17 10:00:58;;;;;;;;;;;;;;;;;;5157402;27;19932;-81
2021/08/17 10:03:27;;;;;;;;;;;;;;;;;;5042537;27;19932;-83
2021/08/17 10:05:55;;;;;;;;;;;;;;;;;;5054032;27;19924;-82
2021/08/17 10:08:24;;;;;;;;;;;;;;;;;;5038415;27;19932;-83
2021/08/17 10:10:53;;;;;;;;;;;;;;;;;;5055858;27;19932;-82
2021/08/17 10:13:22;;;;;;;;;;;;;;;;;;5060398;27;19928;-83
2021/08/17 10:15:51;;;;;;;;;;;;;;;;;;5061174;27;19929;-82
2021/08/17 10:18:24;;;;;;;;;;;;;;;;;;5034808;27;19948;-84
2021/08/17 10:20:54;;;;;;;;;;;;;;;;;;5062457;27;19925;-82
2021/08/17 10:23:22;;;;;;;;;;;;;;;;;;5060285;27;19931;-82
2021/08/17 10:25:51;;;;;;;;;;;;;;;;;;5048257;27;19936;-84
2021/08/17 10:28:24;;;;;;;;;;;;;;;;;;5069281;27;19925;-83
2021/08/17 10:30:52;;;;;;;;;;;;;;;;;;5066695;27;20294;-82
2021/08/17 10:33:35;;;;;;;;;;;;;;;;;;5034816;27;20397;-84
2021/08/17 10:36:06;;;;;;;;;;;;;;;;;;5032398;28;20118;-83
2021/08/17 10:38:48;;;;;;;;;;;;;;;;;;5060616;27;19925;-83
2021/08/17 10:41:30;;;;;;;;;;;;;;;;;;5138551;27;19925;-81
2021/08/17 10:44:08;;;;;;;;;;;;;;;;;;5129411;27;19933;-82
2021/08/17 10:46:42;;;;;;;;;;;;;;;;;;5035792;27;19936;-82
2021/08/17 10:49:24;;;;;;;;;;;;;;;;;;5045600;27;19929;-80
2021/08/17 10:51:55;;;;;;;;;;;;;;;;;;5065800;27;19925;-81
2021/08/17 10:54:23;;;;;;;;;;;;;;;;;;5054609;27;19925;-83
2021/08/17 10:56:52;;;;;;;;;;;;;;;;;;5057371;27;19936;-81
2021/08/17 10:59:38;;;;;;;;;;;;;;;;;;5028368;28;20329;-82
2021/08/17 11:02:08;;;;;;;;;;;;;;;;;;5122532;27;19924;-83
2021/08/17 11:04:37;;;;;;;;;;;;;;;;;;5025569;28;19925;-82
2021/08/17 11:07:20;;;;;;;;;;;;;;;;;;5021926;28;19925;-82
2021/08/17 11:09:49;;;;;;;;;;;;;;;;;;5050030;27;19929;-83
2021/08/17 11:12:19;;;;;;;;;;;;;;;;;;5028496;28;19925;-83
2021/08/17 11:14:48;;;;;;;;;;;;;;;;;;5031118;27;19928;-82
2021/08/17 11:17:16;;;;;;;;;;;;;;;;;;5026268;27;20381;-83
2021/08/17 11:19:46;;;;;;;;;;;;;;;;;;5044496;27;20306;-82
2021/08/17 11:22:15;;;;;;;;;;;;;;;;;;5024012;28;19932;-83
2021/08/17 11:24:43;;;;;;;;;;;;;;;;;;5052946;27;20417;-82
2021/08/17 11:27:14;;;;;;;;;;;;;;;;;;5156554;27;19927;-83
2021/08/17 11:29:43;;;;;;;;;;;;;;;;;;5047157;27;19931;-82
2021/08/17 11:32:12;;;;;;;;;;;;;;;;;;5037360;27;19933;-81
2021/08/17 11:34:41;;;;;;;;;;;;;;;;;;5121178;27;19929;-81
2021/08/17 11:37:10;;;;;;;;;;;;;;;;;;5087484;27;19930;-81
2021/08/17 11:39:42;;;;;;;;;;;;;;;;;;5029487;27;20205;-82
2021/08/17 11:42:14;;;;;;;;;;;;;;;;;;5042470;27;19924;-82
2021/08/17 11:44:42;;;;;;;;;;;;;;;;;;5030297;27;20314;-81
2021/08/17 11:47:11;;;;;;;;;;;;;;;;;;5030200;27;19928;-82
2021/08/17 11:49:39;;;;;;;;;;;;;;;;;;5043003;27;19925;-81
2021/08/17 11:52:12;;;;;;;;;;;;;;;;;;5062335;27;19923;-80
2021/08/17 11:54:41;;;;;;;;;;;;;;;;;;5061626;27;19924;-80
2021/08/17 11:57:13;;;;;;;;;;;;;;;;;;5055981;27;20391;-80
2021/08/17 11:59:42;;;;;;;;;;;;;;;;;;5047432;27;19940;-79
2021/08/17 12:02:11;;;;;;;;;;;;;;;;;;5039753;27;19936;-80
2021/08/17 12:04:39;;;;;;;;;;;;;;;;;;5043891;27;20405;-80
2021/08/17 12:07:14;;;;;;;;;;;;;;;;;;5052754;27;19929;-80
2021/08/17 12:09:44;;;;;;;;;;;;;;;;;;5124354;27;19925;-79
2021/08/17 12:12:14;;;;;;;;;;;;;;;;;;5026138;28;20305;-82
2021/08/17 12:14:42;;;;;;;;;;;;;;;;;;5119321;27;20291;-80
2021/08/17 12:17:11;;;;;;;;;;;;;;;;;;5057082;27;19932;-80
2021/08/17 12:19:46;;;;;;;;;;;;;;;;;;5039559;27;20298;-79
2021/08/17 12:22:22;;;;;;;;;;;;;;;;;;5054362;27;19925;-81
2021/08/17 12:24:51;;;;;;;;;;;;;;;;;;5138939;27;19925;-81
2021/08/17 12:27:25;;;;;;;;;;;;;;;;;;5051655;27;19948;-80
2021/08/17 12:29:53;;;;;;;;;;;;;;;;;;5058192;27;19924;-80
2021/08/17 12:32:22;;;;;;;;;;;;;;;;;;5018294;28;19952;-80
2021/08/17 12:34:51;;;;;;;;;;;;;;;;;;5044947;27;19931;-79
2021/08/17 12:37:29;;;;;;;;;;;;;;;;;;5026998;28;19932;-80
2021/08/17 12:39:58;;;;;;;;;;;;;;;;;;5028303;28;19925;-80
2021/08/17 12:42:28;;;;;;;;;;;;;;;;;;5040828;27;20313;-79
2021/08/17 12:44:56;;;;;;;;;;;;;;;;;;5033986;27;19925;-80
2021/08/17 12:47:26;;;;;;;;;;;;;;;;;;5021769;27;19928;-80
2021/08/17 12:49:55;;;;;;;;;;;;;;;;;;5129376;27;20197;-80
2021/08/17 12:52:28;;;;;;;;;;;;;;;;;;5024302;28;20415;-79
2021/08/17 12:54:57;;;;;;;;;;;;;;;;;;5042981;27;20310;-80
2021/08/17 12:57:26;;;;;;;;;;;;;;;;;;5034894;27;19924;-80
2021/08/17 12:59:58;;;;;;;;;;;;;;;;;;5041661;27;20072;-80
2021/08/17 13:02:27;;;;;;;;;;;;;;;;;;5029916;28;19932;-80
2021/08/17 13:04:55;;;;;;;;;;;;;;;;;;5154530;27;20389;-81
2021/08/17 13:07:23;;;;;;;;;;;;;;;;;;5022733;28;19925;-81
2021/08/17 13:09:52;;;;;;;;;;;;;;;;;;5048936;27;19930;-80
2021/08/17 13:12:20;;;;;;;;;;;;;;;;;;5020414;28;19931;-80
2021/08/17 13:14:48;;;;;;;;;;;;;;;;;;5045187;27;19926;-80
2021/08/17 13:17:17;;;;;;;;;;;;;;;;;;5128526;27;19925;-80
2021/08/17 13:19:46;;;;;;;;;;;;;;;;;;5130609;27;19928;-80
2021/08/17 13:22:16;;;;;;;;;;;;;;;;;;5025438;28;19925;-81
2021/08/17 13:24:44;;;;;;;;;;;;;;;;;;5025065;27;19925;-80
2021/08/17 13:27:12;;;;;;;;;;;;;;;;;;5038702;27;20309;-80
2021/08/17 13:29:41;;;;;;;;;;;;;;;;;;5039901;27;19940;-81
2021/08/17 13:32:09;;;;;;;;;;;;;;;;;;5044539;27;19930;-81
2021/08/17 13:34:39;;;;;;;;;;;;;;;;;;5122840;27;20334;-81
2021/08/17 13:37:08;;;;;;;;;;;;;;;;;;5124608;27;19925;-82
2021/08/17 13:39:36;;;;;;;;;;;;;;;;;;5028138;28;19936;-80
2021/08/17 13:42:04;;;;;;;;;;;;;;;;;;5033709;27;19924;-81
2021/08/17 13:44:33;;;;;;;;;;;;;;;;;;5041432;27;19935;-81
2021/08/17 13:47:01;;;;;;;;;;;;;;;;;;5059638;27;19936;-81
2021/08/17 13:49:29;;;;;;;;;;;;;;;;;;5036461;27;20341;-81
2021/08/17 13:51:59;;;;;;;;;;;;;;;;;;5039561;27;19931;-81
2021/08/17 13:54:27;;;;;;;;;;;;;;;;;;5067045;27;19925;-81
2021/08/17 13:56:56;;;;;;;;;;;;;;;;;;5059799;27;20382;-81
2021/08/17 13:59:24;;;;;;;;;;;;;;;;;;5028524;27;19926;-81
2021/08/17 14:01:52;;;;;;;;;;;;;;;;;;5036746;27;19925;-80
2021/08/17 14:04:20;;;;;;;;;;;;;;;;;;5043050;27;19925;-81
2021/08/17 14:06:49;;;;;;;;;;;;;;;;;;5032662;27;19929;-81
2021/08/17 14:09:19;;;;;;;;;;;;;;;;;;5123202;27;19925;-81
2021/08/17 14:11:47;;;;;;;;;;;;;;;;;;5126295;27;19926;-81
2021/08/17 14:14:15;;;;;;;;;;;;;;;;;;5028998;27;20303;-80
2021/08/17 14:16:44;;;;;;;;;;;;;;;;;;5031790;27;20333;-81
2021/08/17 14:19:12;;;;;;;;;;;;;;;;;;5074821;27;19967;-81
2021/08/17 14:21:40;;;;;;;;;;;;;;;;;;5075147;27;19930;-81
2021/08/17 14:24:09;;;;;;;;;;;;;;;;;;5042620;27;19929;-80
2021/08/17 14:26:40;;;;;;;;;;;;;;;;;;5036909;27;19928;-80
2021/08/17 14:29:08;;;;;;;;;;;;;;;;;;5039270;27;19929;-80
2021/08/17 14:31:37;;;;;;;;;;;;;;;;;;5024690;27;20425;-80
2021/08/17 14:34:06;;;;;;;;;;;;;;;;;;5032534;27;19932;-83
2021/08/17 14:36:35;;;;;;;;;;;;;;;;;;5028078;28;19925;-83
2021/08/17 14:39:05;;;;;;;;;;;;;;;;;;5030599;27;19932;-81
2021/08/17 14:41:33;;;;;;;;;;;;;;;;;;5043973;27;20309;-81
2021/08/17 14:44:05;;;;;;;;;;;;;;;;;;5046333;27;19925;-83
2021/08/17 14:46:34;;;;;;;;;;;;;;;;;;5036522;28;19940;-81
2021/08/17 14:49:03;;;;;;;;;;;;;;;;;;5126103;27;22141;-81
2021/08/17 14:51:31;;;;;;;;;;;;;;;;;;5126701;27;19932;-81
2021/08/17 14:53:59;;;;;;;;;;;;;;;;;;5047244;27;19933;-81
2021/08/17 14:56:29;;;;;;;;;;;;;;;;;;5035160;27;19932;-82
2021/08/17 14:58:57;;;;;;;;;;;;;;;;;;5036612;27;20286;-81
2021/08/17 15:01:27;;;;;;;;;;;;;;;;;;5038791;27;19932;-81
2021/08/17 15:03:56;;;;;;;;;;;;;;;;;;5039513;27;19925;-82
2021/08/17 15:06:24;;;;;;;;;;;;;;;;;;5056030;27;19936;-81
2021/08/17 15:08:52;;;;;;;;;;;;;;;;;;5029943;27;19925;-81
2021/08/17 15:11:21;;;;;;;;;;;;;;;;;;5045552;27;19925;-81
2021/08/17 15:13:49;;;;;;;;;;;;;;;;;;5034031;27;20402;-81
2021/08/17 15:16:17;;;;;;;;;;;;;;;;;;5046352;27;19925;-82
2021/08/17 15:18:48;;;;;;;;;;;;;;;;;;5045050;27;19925;-81
2021/08/17 15:21:16;;;;;;;;;;;;;;;;;;5029640;27;19925;-81
2021/08/17 15:23:44;;;;;;;;;;;;;;;;;;5019904;27;19933;-81
2021/08/17 15:26:13;;;;;;;;;;;;;;;;;;5041967;27;19933;-81
2021/08/17 15:28:41;;;;;;;;;;;;;;;;;;5024920;27;19925;-80
2021/08/17 15:31:09;;;;;;;;;;;;;;;;;;5027553;27;19926;-81
2021/08/17 15:33:38;;;;;;;;;;;;;;;;;;5027400;28;20219;-81
2021/08/17 15:36:07;;;;;;;;;;;;;;;;;;5048497;27;19931;-82
2021/08/17 15:38:40;;;;;;;;;;;;;;;;;;5031054;28;19936;-81
2021/08/17 15:41:08;;;;;;;;;;;;;;;;;;5043399;27;19948;-82
2021/08/17 15:43:36;;;;;;;;;;;;;;;;;;5039317;27;20310;-80
2021/08/17 15:46:04;;;;;;;;;;;;;;;;;;5038641;27;19925;-80
2021/08/17 15:48:32;;;;;;;;;;;;;;;;;;5027921;28;20301;-81
2021/08/17 15:51:01;;;;;;;;;;;;;;;;;;5053570;27;19923;-81
2021/08/17 15:53:30;;;;;;;;;;;;;;;;;;5048482;27;19925;-81
2021/08/17 15:55:58;;;;;;;;;;;;;;;;;;5096465;27;19929;-82
2021/08/17 15:58:27;;;;;;;;;;;;;;;;;;5041721;27;19947;-81
2021/08/17 16:00:55;;;;;;;;;;;;;;;;;;5133868;27;19936;-81
2021/08/17 16:03:23;;;;;;;;;;;;;;;;;;5024923;27;20324;-82
2021/08/17 16:05:51;;;;;;;;;;;;;;;;;;5063706;27;19925;-81
2021/08/17 16:08:20;;;;;;;;;;;;;;;;;;5026308;28;19931;-81
2021/08/17 16:10:49;;;;;;;;;;;;;;;;;;5042397;27;19925;-82
2021/08/17 16:13:18;;;;;;;;;;;;;;;;;;5022925;28;20283;-81
2021/08/17 16:15:46;;;;;;;;;;;;;;;;;;5116763;27;19930;-81
2021/08/17 16:18:14;;;;;;;;;;;;;;;;;;5047386;27;19924;-82
2021/08/17 16:20:43;;;;;;;;;;;;;;;;;;5018808;27;19925;-81
2021/08/17 16:23:11;;;;;;;;;;;;;;;;;;5025709;28;19940;-81
2021/08/17 16:25:39;;;;;;;;;;;;;;;;;;5140991;27;19932;-81
2021/08/17 16:28:08;;;;;;;;;;;;;;;;;;5039804;27;19936;-82
2021/08/17 16:30:37;;;;;;;;;;;;;;;;;;5031014;27;19952;-82
2021/08/17 16:33:05;;;;;;;;;;;;;;;;;;5028195;27;20220;-82
2021/08/17 16:35:34;;;;;;;;;;;;;;;;;;5023273;28;20366;-82
2021/08/17 16:38:02;;;;;;;;;;;;;;;;;;5051589;27;20300;-82
2021/08/17 16:40:30;;;;;;;;;;;;;;;;;;5042348;27;19932;-82
2021/08/17 16:42:59;;;;;;;;;;;;;;;;;;5035729;27;19925;-83
2021/08/17 16:45:34;;;;;;;;;;;;;;;;;;5030965;28;19932;-83
2021/08/17 16:48:03;;;;;;;;;;;;;;;;;;5053052;27;19931;-81
2021/08/17 16:50:32;;;;;;;;;;;;;;;;;;5021692;28;19948;-82
2021/08/17 16:53:00;;;;;;;;;;;;;;;;;;5054069;27;19938;-83
2021/08/17 16:55:28;;;;;;;;;;;;;;;;;;5025210;27;20134;-83
2021/08/17 16:57:57;;;;;;;;;;;;;;;;;;5125443;27;19929;-83
2021/08/17 17:00:26;;;;;;;;;;;;;;;;;;5023543;28;19925;-83
2021/08/17 17:02:58;;;;;;;;;;;;;;;;;;5025112;27;19933;-84
2021/08/17 17:05:27;;;;;;;;;;;;;;;;;;5026502;27;19928;-83
2021/08/17 17:07:56;;;;;;;;;;;;;;;;;;5045049;27;19928;-84
2021/08/17 17:10:25;;;;;;;;;;;;;;;;;;5023260;27;19925;-83
2021/08/17 17:12:55;;;;;;;;;;;;;;;;;;5140133;27;19933;-85
2021/08/17 17:15:26;;;;;;;;;;;;;;;;;;5023978;28;19929;-82
2021/08/17 17:17:55;;;;;;;;;;;;;;;;;;5126157;27;19936;-83
2021/08/17 17:20:25;;;;;;;;;;;;;;;;;;5042966;27;19941;-83
2021/08/17 17:22:53;;;;;;;;;;;;;;;;;;5044580;27;19932;-82
2021/08/17 17:25:22;;;;;;;;;;;;;;;;;;5033964;27;19928;-82
2021/08/17 17:27:54;;;;;;;;;;;;;;;;;;5049120;27;19924;-83
2021/08/17 17:30:23;;;;;;;;;;;;;;;;;;5026907;27;19925;-82
2021/08/17 17:32:52;;;;;;;;;;;;;;;;;;5048471;27;20294;-83
2021/08/17 17:35:23;;;;;;;;;;;;;;;;;;5028738;28;19925;-83
2021/08/17 17:37:57;;;;;;;;;;;;;;;;;;5054020;27;20398;-82
2021/08/17 17:40:27;;;;;;;;;;;;;;;;;;5030217;28;19925;-82
2021/08/17 17:42:55;;;;;;;;;;;;;;;;;;5047678;27;20414;-82
2021/08/17 17:45:23;;;;;;;;;;;;;;;;;;5039080;28;19932;-82
2021/08/17 17:47:52;;;;;;;;;;;;;;;;;;5036346;27;19932;-82
2021/08/17 17:50:21;;;;;;;;;;;;;;;;;;5041179;27;20309;-83
2021/08/17 17:52:49;;;;;;;;;;;;;;;;;;5138582;27;19990;-81
2021/08/17 17:55:19;;;;;;;;;;;;;;;;;;5044990;27;19932;-83
2021/08/17 17:57:48;;;;;;;;;;;;;;;;;;5136471;27;19940;-83
2021/08/17 18:00:19;;;;;;;;;;;;;;;;;;5034005;27;19924;-83
2021/08/17 18:02:48;;;;;;;;;;;;;;;;;;5032537;27;19936;-82
2021/08/17 18:05:16;;;;;;;;;;;;;;;;;;5022230;27;20377;-84
2021/08/17 18:07:45;;;;;;;;;;;;;;;;;;5022801;27;19932;-82
2021/08/17 18:10:13;;;;;;;;;;;;;;;;;;5052586;27;19925;-82
2021/08/17 18:12:43;;;;;;;;;;;;;;;;;;5130623;27;19932;-83